DEDDG EDJZ-EDDH
Flight info
| Callsign | DEDDG |
|---|---|
| Flight time | N/A |
| Altitude | 2500 |
| Route | VFR |
| Aircraft | DA42/L-V/N |
Departure
| Time | N/A |
|---|---|
| Airport | EDJZ |
Arrival
| Time | 2026-04-22 19:22 |
|---|---|
| Airport | Hamburg Helmut Schmidt Airport (EDDH) |
| Time | Latitude | Longitude | Altitude | Speed | Heading |
|---|---|---|---|---|---|
| 2026-04-22 18:52 | 53.58359 | 10.70453 | 147 ft | 0 kts | 266° |
| 2026-04-22 18:52 | 53.58356 | 10.70335 | 145 ft | 36 kts | 265° |
| 2026-04-22 18:52 | 53.58321 | 10.69604 | 164 ft | 81 kts | 265° |
| 2026-04-22 18:53 | 53.58192 | 10.68767 | 547 ft | 77 kts | 253° |
| 2026-04-22 18:53 | 53.57975 | 10.67857 | 693 ft | 92 kts | 256° |
| 2026-04-22 18:53 | 53.57849 | 10.66814 | 1010 ft | 89 kts | 263° |
| 2026-04-22 18:53 | 53.57720 | 10.65692 | 1052 ft | 106 kts | 268° |
| 2026-04-22 18:54 | 53.57744 | 10.64361 | 1062 ft | 122 kts | 275° |
| 2026-04-22 18:54 | 53.57776 | 10.62866 | 1064 ft | 132 kts | 274° |
| 2026-04-22 18:54 | 53.57818 | 10.61283 | 1069 ft | 138 kts | 274° |
| 2026-04-22 18:54 | 53.57860 | 10.59647 | 1068 ft | 141 kts | 274° |
| 2026-04-22 18:55 | 53.57901 | 10.57985 | 1073 ft | 143 kts | 275° |
| 2026-04-22 18:55 | 53.57922 | 10.56317 | 1073 ft | 143 kts | 274° |
| 2026-04-22 18:55 | 53.57949 | 10.54640 | 1071 ft | 143 kts | 274° |
| 2026-04-22 18:55 | 53.57978 | 10.52998 | 1066 ft | 142 kts | 274° |
| 2026-04-22 18:56 | 53.58020 | 10.51344 | 1068 ft | 140 kts | 275° |
| 2026-04-22 18:56 | 53.58044 | 10.49704 | 1067 ft | 141 kts | 274° |
| 2026-04-22 18:56 | 53.58065 | 10.48053 | 1067 ft | 141 kts | 274° |
| 2026-04-22 18:56 | 53.58086 | 10.46410 | 1065 ft | 141 kts | 274° |
| 2026-04-22 18:57 | 53.58126 | 10.44765 | 1072 ft | 141 kts | 274° |
| 2026-04-22 18:57 | 53.58170 | 10.43117 | 1070 ft | 142 kts | 274° |
| 2026-04-22 18:57 | 53.58206 | 10.41458 | 1070 ft | 142 kts | 274° |
| 2026-04-22 18:57 | 53.58233 | 10.39797 | 1074 ft | 141 kts | 275° |
| 2026-04-22 18:58 | 53.58252 | 10.38142 | 1077 ft | 142 kts | 274° |
| 2026-04-22 18:58 | 53.58283 | 10.36506 | 1077 ft | 142 kts | 275° |
| 2026-04-22 18:58 | 53.58314 | 10.34846 | 1078 ft | 143 kts | 274° |
| 2026-04-22 18:58 | 53.58348 | 10.33159 | 1082 ft | 145 kts | 274° |
| 2026-04-22 18:59 | 53.58380 | 10.31457 | 1081 ft | 146 kts | 274° |
| 2026-04-22 18:59 | 53.58407 | 10.29754 | 1089 ft | 145 kts | 274° |
| 2026-04-22 18:59 | 53.58439 | 10.28076 | 1091 ft | 143 kts | 274° |
| 2026-04-22 18:59 | 53.58368 | 10.26412 | 1104 ft | 146 kts | 256° |
| 2026-04-22 19:00 | 53.58003 | 10.24807 | 1105 ft | 148 kts | 252° |
| 2026-04-22 19:00 | 53.57625 | 10.23187 | 1106 ft | 149 kts | 252° |
| 2026-04-22 19:00 | 53.57238 | 10.21566 | 1103 ft | 149 kts | 252° |
| 2026-04-22 19:00 | 53.56860 | 10.19938 | 1098 ft | 150 kts | 252° |
| 2026-04-22 19:01 | 53.56480 | 10.18307 | 1099 ft | 150 kts | 252° |
| 2026-04-22 19:01 | 53.56101 | 10.16674 | 1094 ft | 150 kts | 253° |
| 2026-04-22 19:01 | 53.56026 | 10.15015 | 1075 ft | 142 kts | 290° |
| 2026-04-22 19:01 | 53.56694 | 10.13886 | 1094 ft | 139 kts | 331° |
| 2026-04-22 19:02 | 53.57592 | 10.13243 | 1089 ft | 143 kts | 333° |
| 2026-04-22 19:02 | 53.58540 | 10.12565 | 1094 ft | 153 kts | 333° |
| 2026-04-22 19:02 | 53.59554 | 10.11831 | 1094 ft | 159 kts | 333° |
| 2026-04-22 19:02 | 53.60377 | 10.10647 | 1113 ft | 161 kts | 296° |
| 2026-04-22 19:03 | 53.60411 | 10.08765 | 1113 ft | 170 kts | 252° |
| 2026-04-22 19:03 | 53.59575 | 10.07320 | 1110 ft | 182 kts | 207° |
| 2026-04-22 19:03 | 53.58304 | 10.07209 | 1109 ft | 191 kts | 163° |
| 2026-04-22 19:03 | 53.57275 | 10.08564 | 1110 ft | 192 kts | 120° |
| 2026-04-22 19:04 | 53.57023 | 10.10698 | 1112 ft | 187 kts | 76° |
| 2026-04-22 19:04 | 53.57656 | 10.12494 | 1111 ft | 177 kts | 32° |
| 2026-04-22 19:04 | 53.58769 | 10.12985 | 1216 ft | 163 kts | 347° |
| 2026-04-22 19:04 | 53.59675 | 10.12026 | 1352 ft | 157 kts | 303° |
| 2026-04-22 19:05 | 53.59816 | 10.10243 | 1490 ft | 162 kts | 256° |
| 2026-04-22 19:05 | 53.59071 | 10.08812 | 1627 ft | 172 kts | 209° |
| 2026-04-22 19:05 | 53.57875 | 10.08700 | 1760 ft | 179 kts | 161° |
| 2026-04-22 19:05 | 53.56954 | 10.10045 | 1896 ft | 178 kts | 113° |
| 2026-04-22 19:06 | 53.56858 | 10.12019 | 2036 ft | 169 kts | 66° |
| 2026-04-22 19:06 | 53.57600 | 10.13407 | 2171 ft | 158 kts | 18° |
| 2026-04-22 19:06 | 53.58634 | 10.13354 | 2311 ft | 151 kts | 330° |
| 2026-04-22 19:07 | 53.58961 | 10.10157 | 2455 ft | 173 kts | 237° |
| 2026-04-22 19:07 | 53.57908 | 10.09094 | 2452 ft | 188 kts | 193° |
| 2026-04-22 19:07 | 53.56619 | 10.09501 | 2450 ft | 194 kts | 148° |
| 2026-04-22 19:07 | 53.55786 | 10.11241 | 2453 ft | 192 kts | 105° |
| 2026-04-22 19:08 | 53.55837 | 10.13401 | 2451 ft | 184 kts | 62° |
| 2026-04-22 19:08 | 53.56695 | 10.14843 | 2456 ft | 174 kts | 18° |
| 2026-04-22 19:08 | 53.57857 | 10.14878 | 2451 ft | 168 kts | 340° |
| 2026-04-22 19:08 | 53.58937 | 10.14139 | 2447 ft | 168 kts | 333° |
| 2026-04-22 19:09 | 53.59997 | 10.13314 | 2443 ft | 168 kts | 333° |
| 2026-04-22 19:09 | 53.61019 | 10.12368 | 2448 ft | 168 kts | 326° |
| 2026-04-22 19:09 | 53.61616 | 10.11501 | 2451 ft | 168 kts | 311° |
| 2026-04-22 19:09 | 53.62596 | 10.09462 | 2349 ft | 168 kts | 308° |
| 2026-04-22 19:10 | 53.63174 | 10.08156 | 1898 ft | 116 kts | 309° |
| 2026-04-22 19:10 | 53.63608 | 10.07171 | 1550 ft | 98 kts | 300° |
| 2026-04-22 19:10 | 53.63921 | 10.06126 | 1354 ft | 100 kts | 294° |
| 2026-04-22 19:10 | 53.64126 | 10.04956 | 1066 ft | 111 kts | 281° |
| 2026-04-22 19:11 | 53.64179 | 10.03679 | 893 ft | 111 kts | 271° |
| 2026-04-22 19:11 | 53.64088 | 10.02337 | 653 ft | 115 kts | 261° |
| 2026-04-22 19:11 | 53.63855 | 10.01001 | 395 ft | 120 kts | 251° |
| 2026-04-22 19:11 | 53.63442 | 9.99743 | 126 ft | 123 kts | 231° |
| 2026-04-22 19:12 | 53.62926 | 9.98665 | 50 ft | 111 kts | 223° |
| 2026-04-22 19:12 | 53.62426 | 9.97717 | 465 ft | 97 kts | 235° |
| 2026-04-22 19:12 | 53.61999 | 9.96799 | 700 ft | 108 kts | 237° |
| 2026-04-22 19:12 | 53.61568 | 9.95704 | 963 ft | 110 kts | 226° |
| 2026-04-22 19:13 | 53.60711 | 9.95391 | 988 ft | 145 kts | 175° |
| 2026-04-22 19:13 | 53.59806 | 9.96371 | 963 ft | 163 kts | 136° |
| 2026-04-22 19:13 | 53.59451 | 9.98029 | 965 ft | 162 kts | 66° |
| 2026-04-22 19:13 | 53.59971 | 9.99698 | 888 ft | 163 kts | 52° |
| 2026-04-22 19:14 | 53.60593 | 10.01285 | 891 ft | 161 kts | 48° |
| 2026-04-22 19:14 | 53.61324 | 10.02671 | 903 ft | 156 kts | 37° |
| 2026-04-22 19:14 | 53.62163 | 10.03769 | 959 ft | 149 kts | 20° |
| 2026-04-22 19:14 | 53.63117 | 10.03796 | 1006 ft | 136 kts | 338° |
| 2026-04-22 19:15 | 53.63659 | 10.03298 | 988 ft | 132 kts | 321° |
| 2026-04-22 19:15 | 53.64128 | 10.01603 | 585 ft | 120 kts | 270° |
| 2026-04-22 19:15 | 53.63769 | 10.00343 | 195 ft | 121 kts | 237° |
| 2026-04-22 19:15 | 53.63269 | 9.99312 | 68 ft | 109 kts | 230° |
| 2026-04-22 19:16 | 53.62743 | 9.98349 | 282 ft | 116 kts | 227° |
| 2026-04-22 19:16 | 53.62164 | 9.97354 | 540 ft | 114 kts | 230° |
| 2026-04-22 19:16 | 53.61614 | 9.96339 | 712 ft | 125 kts | 204° |
| 2026-04-22 19:16 | 53.60804 | 9.96977 | 813 ft | 148 kts | 131° |
| 2026-04-22 19:17 | 53.60397 | 9.97967 | 785 ft | 159 kts | 111° |
| 2026-04-22 19:17 | 53.60428 | 9.99671 | 791 ft | 140 kts | 56° |
| 2026-04-22 19:17 | 53.60918 | 10.00971 | 879 ft | 125 kts | 44° |
| 2026-04-22 19:17 | 53.61391 | 10.02146 | 921 ft | 122 kts | 60° |
| 2026-04-22 19:18 | 53.61446 | 10.04057 | 958 ft | 126 kts | 99° |
| 2026-04-22 19:18 | 53.60936 | 10.05231 | 875 ft | 131 kts | 150° |
| 2026-04-22 19:18 | 53.60361 | 10.05419 | 846 ft | 123 kts | 194° |
| 2026-04-22 19:18 | 53.59849 | 10.04523 | 808 ft | 104 kts | 275° |
| 2026-04-22 19:19 | 53.60253 | 10.03552 | 680 ft | 111 kts | 321° |
| 2026-04-22 19:19 | 53.60986 | 10.03620 | 703 ft | 113 kts | 18° |
| 2026-04-22 19:19 | 53.61652 | 10.04403 | 688 ft | 117 kts | 34° |
| 2026-04-22 19:19 | 53.62241 | 10.05240 | 759 ft | 109 kts | 26° |
| 2026-04-22 19:20 | 53.62917 | 10.05917 | 637 ft | 117 kts | 17° |
| 2026-04-22 19:20 | 53.63533 | 10.06393 | 680 ft | 106 kts | 359° |
| 2026-04-22 19:20 | 53.64127 | 10.06001 | 599 ft | 89 kts | 314° |
| 2026-04-22 19:20 | 53.64525 | 10.05178 | 432 ft | 99 kts | 302° |
| 2026-04-22 19:21 | 53.64850 | 10.04067 | 479 ft | 110 kts | 282° |
| 2026-04-22 19:21 | 53.64759 | 10.02796 | 475 ft | 110 kts | 240° |
| 2026-04-22 19:21 | 53.64439 | 10.01888 | 291 ft | 73 kts | 247° |
| 2026-04-22 19:21 | 53.64174 | 10.01172 | 207 ft | 77 kts | 237° |
| 2026-04-22 19:22 | 53.63822 | 10.00431 | 128 ft | 83 kts | 235° |
| 2026-04-22 19:22 | 53.63449 | 9.99666 | 51 ft | 81 kts | 234° |
| 2026-04-22 19:22 | 53.63184 | 9.99134 | 41 ft | 31 kts | 224° |
| 2026-04-22 19:22 | 53.63041 | 9.98849 | 40 ft | 38 kts | 225° |
| 2026-04-22 19:23 | 53.62888 | 9.98572 | 39 ft | 28 kts | 222° |
| 2026-04-22 19:23 | 53.62752 | 9.98482 | 40 ft | 11 kts | 184° |
| 2026-04-22 19:23 | 53.62707 | 9.98490 | 41 ft | 0 kts | 84° |
| 2026-04-22 19:23 | 53.62707 | 9.98509 | 41 ft | 9 kts | 97° |
| 2026-04-22 19:24 | 53.62705 | 9.98647 | 41 ft | 10 kts | 128° |
| 2026-04-22 19:24 | 53.62695 | 9.98725 | 41 ft | 0 kts | 53° |